Time,TemperatureF,DewpointF,PressureIn,WindDirection,WindDirectionDegrees,WindSpeedMPH,WindSpeedGustMPH,Humidity,HourlyPrecipIn,Conditions,Clouds,dailyrainin,SoftwareType,DateUTC
2013-09-09 00:01:00,75.0,72.1,29.96,NE,45,1.0,-999.0,91,-99.99,,,0.00,meteohub,2013-09-09 04:01:00,
2013-09-09 00:02:00,73.9,72.7,29.96,NE,45,2.0,-999.0,96,-99.99,,,0.00,meteohub,2013-09-09 04:02:00,
2013-09-09 00:03:00,73.9,71.1,29.96,NE,45,1.0,-999.0,91,-99.99,,,0.00,meteohub,2013-09-09 04:03:00,
2013-09-09 00:05:00,73.9,71.1,29.96,NE,45,0.0,-999.0,91,-99.99,,,0.00,meteohub,2013-09-09 04:05:00,
2013-09-09 00:10:00,73.9,71.4,29.96,NE,45,0.0,-999.0,92,-99.99,,,0.00,meteohub,2013-09-09 04:10:00,
2013-09-09 00:15:00,75.0,72.1,29.96,NE,45,0.0,-999.0,91,-99.99,,,-99.99,meteohub,2013-09-09 04:15:00,
2013-09-09 00:20:00,75.0,72.1,29.96,NE,45,4.0,-999.0,91,-99.99,,,-99.99,meteohub,2013-09-09 04:20:00,
2013-09-09 00:25:00,75.0,72.5,29.96,North,0,0.0,-999.0,92,-99.99,,,-99.99,meteohub,2013-09-09 04:25:00,
2013-09-09 00:31:00,75.0,72.5,29.96,North,0,0.0,-999.0,92,-99.99,,,-99.99,meteohub,2013-09-09 04:31:00,
2013-09-09 00:36:00,75.0,72.5,29.96,North,0,1.0,-999.0,92,-99.99,,,-99.99,meteohub,2013-09-09 04:36:00,
2013-09-09 00:41:00,75.0,72.5,29.96,North,0,1.0,-999.0,92,-99.99,,,-99.99,meteohub,2013-09-09 04:41:00,
2013-09-09 00:46:00,75.0,72.5,29.96,North,0,0.0,-999.0,92,-99.99,,,-99.99,meteohub,2013-09-09 04:46:00,
2013-09-09 00:51:00,73.9,73.0,29.96,NW,315,0.0,-999.0,97,-99.99,,,-99.99,meteohub,2013-09-09 04:51:00,
2013-09-09 00:56:00,75.0,72.5,29.96,NNW,337,0.0,-999.0,92,-99.99,,,-99.99,meteohub,2013-09-09 04:56:00,
2013-09-09 01:01:00,75.0,72.5,29.96,NE,45,2.0,-999.0,92,-99.99,,,-99.99,meteohub,2013-09-09 05:01:00,
2013-09-09 01:07:00,75.0,72.5,29.96,NE,45,1.0,-999.0,92,-99.99,,,-99.99,meteohub,2013-09-09 05:07:00,
2013-09-09 01:12:00,73.9,73.0,29.96,NE,45,2.0,-999.0,97,-99.99,,,-99.99,meteohub,2013-09-09 05:12:00,
2013-09-09 01:17:00,75.0,72.5,29.96,NE,45,2.0,-999.0,92,-99.99,,,-99.99,meteohub,2013-09-09 05:17:00,
2013-09-09 01:22:00,75.0,72.5,29.96,NE,45,1.0,-999.0,92,-99.99,,,-99.99,meteohub,2013-09-09 05:22:00,
2013-09-09 01:27:00,75.0,72.5,29.96,NE,45,4.0,-999.0,92,-99.99,,,-99.99,meteohub,2013-09-09 05:27:00,
2013-09-09 01:32:00,75.0,72.5,29.96,NE,45,2.0,-999.0,92,-99.99,,,-99.99,meteohub,2013-09-09 05:32:00,
2013-09-09 01:37:00,75.0,72.5,29.96,NE,45,1.0,-999.0,92,-99.99,,,-99.99,meteohub,2013-09-09 05:37:00,
2013-09-09 01:42:00,75.0,72.9,29.96,NE,45,4.0,-999.0,93,-99.99,,,-99.99,meteohub,2013-09-09 05:42:00,
2013-09-09 01:47:00,75.0,72.9,29.96,NNW,337,1.0,-999.0,93,-99.99,,,-99.99,meteohub,2013-09-09 05:47:00,
2013-09-09 01:52:00,75.0,72.9,29.96,NE,45,1.0,-999.0,93,-99.99,,,-99.99,meteohub,2013-09-09 05:52:00,
2013-09-09 01:57:00,73.9,71.8,29.96,NE,45,4.0,-999.0,93,-99.99,,,-99.99,meteohub,2013-09-09 05:57:00,
2013-09-09 02:02:00,73.9,73.4,29.96,SE,135,0.0,-999.0,98,-99.99,,,-99.99,meteohub,2013-09-09 06:02:00,
2013-09-09 02:07:00,73.9,71.8,29.96,NE,45,1.0,-999.0,93,-99.99,,,-99.99,meteohub,2013-09-09 06:07:00,
2013-09-09 02:12:00,73.9,71.8,29.95,NE,45,1.0,-999.0,93,-99.99,,,-99.99,meteohub,2013-09-09 06:12:00,
2013-09-09 02:17:00,73.9,71.8,29.95,NE,45,5.0,-999.0,93,-99.99,,,-99.99,meteohub,2013-09-09 06:17:00,
2013-09-09 02:22:00,73.9,73.6,29.95,NE,45,3.0,-999.0,99,-99.99,,,-99.99,meteohub,2013-09-09 06:22:00,
2013-09-09 02:27:00,75.0,72.9,29.95,SE,135,4.0,-999.0,93,-99.99,,,-99.99,meteohub,2013-09-09 06:27:00,
2013-09-09 02:32:00,75.0,72.9,29.95,NE,45,4.0,-999.0,93,-99.99,,,-99.99,meteohub,2013-09-09 06:32:00,
2013-09-09 02:37:00,75.0,72.9,29.94,NE,45,4.0,-999.0,93,-99.99,,,-99.99,meteohub,2013-09-09 06:37:00,
2013-09-09 02:42:00,75.0,72.9,29.94,NE,45,5.0,-999.0,93,-99.99,,,-99.99,meteohub,2013-09-09 06:42:00,
2013-09-09 02:47:00,75.0,72.9,29.94,NE,45,2.0,-999.0,93,-99.99,,,-99.99,meteohub,2013-09-09 06:47:00,
2013-09-09 02:52:00,75.0,72.9,29.94,NE,45,1.0,-999.0,93,-99.99,,,-99.99,meteohub,2013-09-09 06:52:00,
2013-09-09 02:57:00,73.9,73.6,29.94,NE,45,4.0,-999.0,99,-99.99,,,-99.99,meteohub,2013-09-09 06:57:00,
2013-09-09 03:02:00,75.0,72.9,29.94,NE,45,2.0,-999.0,93,-99.99,,,-99.99,meteohub,2013-09-09 07:02:00,
2013-09-09 03:07:00,75.0,72.9,29.94,NE,45,4.0,-999.0,93,-99.99,,,-99.99,meteohub,2013-09-09 07:07:00,
2013-09-09 03:12:00,73.9,73.6,29.93,NE,45,1.0,-999.0,99,-99.99,,,-99.99,meteohub,2013-09-09 07:12:00,
2013-09-09 03:17:00,75.0,72.9,29.93,NE,45,6.0,-999.0,93,-99.99,,,-99.99,meteohub,2013-09-09 07:17:00,
2013-09-09 03:22:00,75.0,72.9,29.93,NE,45,3.0,-999.0,93,-99.99,,,-99.99,meteohub,2013-09-09 07:22:00,
2013-09-09 03:27:00,75.0,72.9,29.93,NE,45,4.0,-999.0,93,-99.99,,,-99.99,meteohub,2013-09-09 07:27:00,
2013-09-09 03:32:00,75.0,72.9,29.93,NE,45,4.0,-999.0,93,-99.99,,,-99.99,meteohub,2013-09-09 07:32:00,
2013-09-09 03:37:00,75.0,72.9,29.91,NE,45,3.0,-999.0,93,-99.99,,,-99.99,meteohub,2013-09-09 07:37:00,
2013-09-09 03:42:00,75.0,73.2,29.91,NE,45,0.0,-999.0,94,-99.99,,,-99.99,meteohub,2013-09-09 07:42:00,
2013-09-09 03:47:00,75.0,73.2,29.91,SE,135,1.0,-999.0,94,-99.99,,,-99.99,meteohub,2013-09-09 07:47:00,
2013-09-09 03:52:00,75.0,73.2,29.91,NE,45,5.0,-999.0,94,-99.99,,,-99.99,meteohub,2013-09-09 07:52:00,
2013-09-09 03:57:00,75.0,73.2,29.91,NE,45,1.0,-999.0,94,-99.99,,,-99.99,meteohub,2013-09-09 07:57:00,
2013-09-09 04:02:00,75.0,73.2,29.91,NE,45,6.0,-999.0,94,-99.99,,,-99.99,meteohub,2013-09-09 08:02:00,
2013-09-09 04:07:00,75.0,73.2,29.91,NE,45,3.0,-999.0,94,-99.99,,,-99.99,meteohub,2013-09-09 08:07:00,
2013-09-09 04:12:00,75.0,73.2,29.91,NE,45,3.0,-999.0,94,-99.99,,,-99.99,meteohub,2013-09-09 08:12:00,
2013-09-09 04:17:00,75.0,73.2,29.93,NE,45,4.0,-999.0,94,-99.99,,,-99.99,meteohub,2013-09-09 08:17:00,
2013-09-09 04:22:00,75.0,73.2,29.93,NE,45,2.0,-999.0,94,-99.99,,,-99.99,meteohub,2013-09-09 08:22:00,
2013-09-09 04:27:00,75.0,73.2,29.93,NE,45,2.0,-999.0,94,-99.99,,,-99.99,meteohub,2013-09-09 08:27:00,
2013-09-09 04:32:00,75.0,73.2,29.93,NE,45,3.0,-999.0,94,-99.99,,,-99.99,meteohub,2013-09-09 08:32:00,
2013-09-09 04:37:00,75.0,73.2,29.94,NE,45,2.0,-999.0,94,-99.99,,,-99.99,meteohub,2013-09-09 08:37:00,
2013-09-09 04:42:00,75.0,73.2,29.94,NE,45,3.0,-999.0,94,-99.99,,,-99.99,meteohub,2013-09-09 08:42:00,
2013-09-09 04:47:00,75.0,73.2,29.94,NE,45,0.0,-999.0,94,-99.99,,,-99.99,meteohub,2013-09-09 08:47:00,
2013-09-09 04:52:00,75.0,73.2,29.94,NE,45,4.0,-999.0,94,-99.99,,,-99.99,meteohub,2013-09-09 08:52:00,
2013-09-09 04:57:00,75.0,73.2,29.94,NNE,22,0.0,-999.0,94,-99.99,,,-99.99,meteohub,2013-09-09 08:57:00,
2013-09-09 05:02:00,75.0,73.2,29.94,NE,45,0.0,-999.0,94,-99.99,,,-99.99,meteohub,2013-09-09 09:02:00,
2013-09-09 05:07:00,75.0,73.2,29.94,NE,45,0.0,-999.0,94,-99.99,,,-99.99,meteohub,2013-09-09 09:07:00,
2013-09-09 05:12:00,75.0,73.2,29.95,NE,45,1.0,-999.0,94,-99.99,,,-99.99,meteohub,2013-09-09 09:12:00,
2013-09-09 05:17:00,73.9,73.9,29.95,NNW,337,0.0,-999.0,100,-99.99,,,-99.99,meteohub,2013-09-09 09:17:00,
2013-09-09 05:22:00,75.0,73.2,29.95,NE,45,0.0,-999.0,94,-99.99,,,-99.99,meteohub,2013-09-09 09:22:00,
2013-09-09 05:27:00,75.0,73.2,29.95,NE,45,0.0,-999.0,94,-99.99,,,-99.99,meteohub,2013-09-09 09:27:00,
2013-09-09 05:32:00,75.0,75.0,29.95,NE,45,5.0,-999.0,100,-99.99,,,-99.99,meteohub,2013-09-09 09:32:00,
2013-09-09 05:37:00,75.0,73.2,29.95,North,0,0.0,-999.0,94,-99.99,,,-99.99,meteohub,2013-09-09 09:37:00,
2013-09-09 05:42:00,75.0,73.2,29.95,NE,45,5.0,-999.0,94,-99.99,,,-99.99,meteohub,2013-09-09 09:42:00,
2013-09-09 05:47:00,75.0,73.4,29.95,NE,45,2.0,-999.0,95,-99.99,,,-99.99,meteohub,2013-09-09 09:47:00,
2013-09-09 05:52:00,75.0,75.0,29.96,NE,45,1.0,-999.0,100,-99.99,,,-99.99,meteohub,2013-09-09 09:52:00,
2013-09-09 05:57:00,75.0,73.2,29.96,NE,45,6.0,-999.0,94,-99.99,,,-99.99,meteohub,2013-09-09 09:57:00,
2013-09-09 06:02:00,75.0,73.4,29.96,NE,45,1.0,-999.0,95,-99.99,,,-99.99,meteohub,2013-09-09 10:02:00,
2013-09-09 06:07:00,75.0,73.4,29.96,NE,45,4.0,-999.0,95,-99.99,,,-99.99,meteohub,2013-09-09 10:07:00,
2013-09-09 06:12:00,75.0,73.4,29.96,NE,45,5.0,-999.0,95,-99.99,,,-99.99,meteohub,2013-09-09 10:12:00,
2013-09-09 06:17:00,75.0,73.4,29.96,NE,45,2.0,-999.0,95,-99.99,,,-99.99,meteohub,2013-09-09 10:17:00,
2013-09-09 06:22:00,75.9,74.7,29.96,NE,45,2.0,-999.0,96,-99.99,,,-99.99,meteohub,2013-09-09 10:22:00,
2013-09-09 06:27:00,75.9,74.7,29.96,NE,45,2.0,-999.0,96,-99.99,,,-99.99,meteohub,2013-09-09 10:27:00,
2013-09-09 06:32:00,75.0,73.4,29.96,NE,45,2.0,-999.0,95,-99.99,,,-99.99,meteohub,2013-09-09 10:32:00,
2013-09-09 06:37:00,75.0,73.8,29.96,NE,45,4.0,-999.0,96,-99.99,,,-99.99,meteohub,2013-09-09 10:37:00,
2013-09-09 06:42:00,75.0,75.0,29.96,NE,45,6.0,-999.0,100,-99.99,,,-99.99,meteohub,2013-09-09 10:42:00,
2013-09-09 06:47:00,75.9,74.3,29.96,NE,45,3.0,-999.0,95,-99.99,,,-99.99,meteohub,2013-09-09 10:47:00,
2013-09-09 06:52:00,75.9,74.7,29.96,NE,45,1.0,-999.0,96,-99.99,,,-99.99,meteohub,2013-09-09 10:52:00,
2013-09-09 06:57:00,75.0,73.4,29.96,NNE,22,1.0,-999.0,95,-99.99,,,-99.99,meteohub,2013-09-09 10:57:00,
2013-09-09 07:02:00,75.9,74.7,29.96,NE,45,3.0,-999.0,96,-99.99,,,-99.99,meteohub,2013-09-09 11:02:00,
2013-09-09 07:07:00,75.9,74.7,29.96,NE,45,6.0,-999.0,96,-99.99,,,-99.99,meteohub,2013-09-09 11:07:00,
2013-09-09 07:12:00,75.9,74.7,29.96,NE,45,4.0,-999.0,96,-99.99,,,-99.99,meteohub,2013-09-09 11:12:00,
2013-09-09 07:17:00,75.9,74.7,29.96,NE,45,3.0,-999.0,96,-99.99,,,-99.99,meteohub,2013-09-09 11:17:00,
2013-09-09 07:22:00,75.9,74.7,29.96,NE,45,2.0,-999.0,96,-99.99,,,-99.99,meteohub,2013-09-09 11:22:00,
2013-09-09 07:27:00,75.9,74.7,29.96,NNE,22,3.0,-999.0,96,-99.99,,,-99.99,meteohub,2013-09-09 11:27:00,
2013-09-09 07:32:00,75.9,75.0,29.96,NE,45,0.0,-999.0,97,-99.99,,,-99.99,meteohub,2013-09-09 11:32:00,
2013-09-09 07:37:00,75.9,74.7,29.96,NE,45,0.0,-999.0,96,-99.99,,,-99.99,meteohub,2013-09-09 11:37:00,
2013-09-09 07:42:00,75.9,75.0,29.96,NE,45,2.0,-999.0,97,-99.99,,,-99.99,meteohub,2013-09-09 11:42:00,
2013-09-09 07:47:00,77.0,75.7,29.96,NE,45,2.0,-999.0,96,-99.99,,,-99.99,meteohub,2013-09-09 11:47:00,
2013-09-09 07:52:00,75.9,75.9,29.96,SE,135,3.0,-999.0,100,-99.99,,,-99.99,meteohub,2013-09-09 11:52:00,
2013-09-09 07:57:00,77.0,75.4,29.96,NE,45,2.0,-999.0,95,-99.99,,,-99.99,meteohub,2013-09-09 11:57:00,
2013-09-09 08:02:00,77.0,75.4,29.96,NE,45,3.0,-999.0,95,-99.99,,,-99.99,meteohub,2013-09-09 12:02:00,
2013-09-09 08:07:00,77.0,75.2,29.98,NE,45,5.0,-999.0,94,-99.99,,,-99.99,meteohub,2013-09-09 12:07:00,
2013-09-09 08:12:00,78.1,75.9,29.98,NE,45,1.0,-999.0,93,-99.99,,,-99.99,meteohub,2013-09-09 12:12:00,
2013-09-09 08:17:00,78.1,74.8,29.98,NE,45,3.0,-999.0,90,-99.99,,,-99.99,meteohub,2013-09-09 12:17:00,
2013-09-09 08:22:00,78.1,74.8,29.99,NE,45,2.0,-999.0,90,-99.99,,,-99.99,meteohub,2013-09-09 12:22:00,
2013-09-09 08:27:00,78.1,76.5,29.99,NE,45,5.0,-999.0,95,-99.99,,,-99.99,meteohub,2013-09-09 12:27:00,
2013-09-09 08:32:00,79.0,75.2,29.99,SE,135,1.0,-999.0,88,-99.99,,,-99.99,meteohub,2013-09-09 12:32:00,
2013-09-09 08:37:00,79.0,74.8,29.99,NE,45,4.0,-999.0,87,-99.99,,,-99.99,meteohub,2013-09-09 12:37:00,
2013-09-09 08:42:00,80.1,75.9,30.00,NE,45,3.0,-999.0,87,-99.99,,,-99.99,meteohub,2013-09-09 12:42:00,
2013-09-09 08:47:00,79.0,75.7,30.00,NE,45,3.0,-999.0,90,-99.99,,,-99.99,meteohub,2013-09-09 12:47:00,
2013-09-09 08:52:00,80.1,74.5,30.00,NE,45,2.0,-999.0,83,-99.99,,,-99.99,meteohub,2013-09-09 12:52:00,
2013-09-09 08:57:00,81.0,75.4,30.00,NE,45,5.0,-999.0,83,-99.99,,,-99.99,meteohub,2013-09-09 12:57:00,
2013-09-09 09:02:00,81.0,74.7,30.00,NE,45,3.0,-999.0,81,-99.99,,,-99.99,meteohub,2013-09-09 13:02:00,
2013-09-09 09:07:00,81.0,74.1,30.00,NE,45,6.0,-999.0,80,-99.99,,,-99.99,meteohub,2013-09-09 13:07:00,
2013-09-09 09:12:00,81.0,74.1,30.00,NE,45,6.0,-999.0,80,-99.99,,,-99.99,meteohub,2013-09-09 13:12:00,
2013-09-09 09:17:00,81.0,74.7,30.01,SE,135,5.0,-999.0,81,-99.99,,,-99.99,meteohub,2013-09-09 13:17:00,
2013-09-09 09:22:00,81.0,75.7,30.01,NE,45,3.0,-999.0,84,-99.99,,,-99.99,meteohub,2013-09-09 13:22:00,
2013-09-09 09:28:00,81.0,73.4,30.01,SE,135,7.0,-999.0,78,-99.99,,,-99.99,meteohub,2013-09-09 13:28:00,
2013-09-09 09:33:00,82.0,74.5,30.01,NE,45,7.0,-999.0,78,-99.99,,,-99.99,meteohub,2013-09-09 13:33:00,
2013-09-09 09:38:00,82.0,73.8,30.01,NE,45,7.0,-999.0,76,-99.99,,,-99.99,meteohub,2013-09-09 13:38:00,
2013-09-09 09:43:00,81.0,75.4,30.01,NE,45,5.0,-999.0,83,-99.99,,,-99.99,meteohub,2013-09-09 13:43:00,
2013-09-09 09:48:00,82.0,73.8,30.01,NE,45,5.0,-999.0,76,-99.99,,,-99.99,meteohub,2013-09-09 13:48:00,
2013-09-09 09:53:00,82.0,73.8,30.01,NE,45,6.0,-999.0,76,-99.99,,,-99.99,meteohub,2013-09-09 13:53:00,
2013-09-09 09:58:00,82.0,73.4,30.01,NE,45,6.0,-999.0,75,-99.99,,,-99.99,meteohub,2013-09-09 13:58:00,
2013-09-09 10:03:00,82.0,73.8,30.01,NE,45,7.0,-999.0,76,-99.99,,,-99.99,meteohub,2013-09-09 14:03:00,
2013-09-09 10:08:00,82.9,74.7,30.01,NE,45,9.0,-999.0,76,-99.99,,,-99.99,meteohub,2013-09-09 14:08:00,
2013-09-09 10:13:00,82.9,73.8,30.03,NE,45,9.0,-999.0,74,-99.99,,,-99.99,meteohub,2013-09-09 14:13:00,
2013-09-09 10:18:00,82.9,75.7,30.03,SE,135,2.0,-999.0,79,-99.99,,,-99.99,meteohub,2013-09-09 14:18:00,
2013-09-09 10:23:00,82.9,73.8,30.03,NE,45,7.0,-999.0,74,-99.99,,,-99.99,meteohub,2013-09-09 14:23:00,
2013-09-09 10:28:00,82.9,73.0,30.01,SE,135,9.0,-999.0,72,-99.99,,,-99.99,meteohub,2013-09-09 14:28:00,
2013-09-09 10:33:00,82.9,73.0,30.01,SE,135,9.0,-999.0,72,-99.99,,,-99.99,meteohub,2013-09-09 14:33:00,
2013-09-09 10:39:00,82.9,72.5,30.01,NE,45,5.0,-999.0,71,-99.99,,,-99.99,meteohub,2013-09-09 14:39:00,
2013-09-09 10:44:00,82.9,72.5,30.01,NE,45,7.0,-999.0,71,-99.99,,,-99.99,meteohub,2013-09-09 14:44:00,
2013-09-09 10:49:00,82.9,72.1,30.01,SE,135,11.0,-999.0,70,-99.99,,,-99.99,meteohub,2013-09-09 14:49:00,
2013-09-09 10:54:00,82.9,73.0,30.03,SE,135,7.0,-999.0,72,-99.99,,,-99.99,meteohub,2013-09-09 14:54:00,
2013-09-09 10:59:00,82.9,73.0,30.03,NE,45,6.0,-999.0,72,-99.99,,,-99.99,meteohub,2013-09-09 14:59:00,
2013-09-09 11:04:00,84.0,73.2,30.03,SE,135,5.0,-999.0,70,-99.99,,,-99.99,meteohub,2013-09-09 15:04:00,
2013-09-09 11:09:00,84.0,73.6,30.01,NNE,22,0.0,-999.0,71,-99.99,,,-99.99,meteohub,2013-09-09 15:09:00,
2013-09-09 11:14:00,84.0,74.8,30.01,NE,45,6.0,-999.0,74,-99.99,,,-99.99,meteohub,2013-09-09 15:14:00,
2013-09-09 11:19:00,84.9,73.2,30.01,NE,45,7.0,-999.0,68,-99.99,,,-99.99,meteohub,2013-09-09 15:19:00,
2013-09-09 11:24:00,84.9,73.2,30.03,NE,45,2.0,-999.0,68,-99.99,,,-99.99,meteohub,2013-09-09 15:24:00,
2013-09-09 11:29:00,84.9,73.2,30.03,NE,45,3.0,-999.0,68,-99.99,,,-99.99,meteohub,2013-09-09 15:29:00,
2013-09-09 11:34:00,84.9,73.2,30.03,NE,45,7.0,-999.0,68,-99.99,,,-99.99,meteohub,2013-09-09 15:34:00,
2013-09-09 11:39:00,84.9,71.4,30.01,NE,45,6.0,-999.0,64,-99.99,,,-99.99,meteohub,2013-09-09 15:39:00,
2013-09-09 11:44:00,84.9,73.2,30.01,NE,45,7.0,-999.0,68,-99.99,,,-99.99,meteohub,2013-09-09 15:44:00,
2013-09-09 11:50:00,84.9,73.2,30.03,NE,45,1.0,-999.0,68,-99.99,,,-99.99,meteohub,2013-09-09 15:50:00,
2013-09-09 11:55:00,84.9,72.3,30.03,SE,135,9.0,-999.0,66,-99.99,,,-99.99,meteohub,2013-09-09 15:55:00,
2013-09-09 12:00:00,84.9,71.8,30.01,NE,45,4.0,-999.0,65,-99.99,,,-99.99,meteohub,2013-09-09 16:00:00,
2013-09-09 12:05:00,84.9,70.9,30.01,SE,135,7.0,-999.0,63,-99.99,,,-99.99,meteohub,2013-09-09 16:05:00,
2013-09-09 12:10:00,84.9,72.7,30.01,NE,45,9.0,-999.0,67,-99.99,,,-99.99,meteohub,2013-09-09 16:10:00,
2013-09-09 12:15:00,84.9,70.9,30.01,SE,135,6.0,-999.0,63,-99.99,,,-99.99,meteohub,2013-09-09 16:15:00,
2013-09-09 12:20:00,84.9,71.8,30.01,NE,45,6.0,-999.0,65,-99.99,,,-99.99,meteohub,2013-09-09 16:20:00,
2013-09-09 12:25:00,86.0,72.9,30.01,NE,45,5.0,-999.0,65,-99.99,,,-99.99,meteohub,2013-09-09 16:25:00,
2013-09-09 12:30:00,86.0,72.0,30.01,SE,135,5.0,-999.0,63,-99.99,,,-99.99,meteohub,2013-09-09 16:30:00,
2013-09-09 12:35:00,84.9,71.8,30.01,NNE,22,4.0,-999.0,65,-99.99,,,-99.99,meteohub,2013-09-09 16:35:00,
2013-09-09 12:40:00,86.0,72.3,30.01,NE,45,6.0,-999.0,64,-99.99,,,-99.99,meteohub,2013-09-09 16:40:00,
2013-09-09 12:45:00,86.0,72.9,30.01,NE,45,7.0,-999.0,65,-99.99,,,-99.99,meteohub,2013-09-09 16:45:00,
2013-09-09 12:50:00,86.0,70.0,30.01,NE,45,7.0,-999.0,59,-99.99,,,-99.99,meteohub,2013-09-09 16:50:00,
2013-09-09 12:56:00,86.0,71.1,30.01,SE,135,6.0,-999.0,61,-99.99,,,-99.99,meteohub,2013-09-09 16:56:00,
2013-09-09 13:01:00,86.0,71.4,30.01,NE,45,7.0,-999.0,62,-99.99,,,-99.99,meteohub,2013-09-09 17:01:00,
2013-09-09 13:06:00,87.1,72.0,30.01,NE,45,6.0,-999.0,61,-99.99,,,-99.99,meteohub,2013-09-09 17:06:00,
2013-09-09 13:11:00,86.0,72.0,30.01,NE,45,6.0,-999.0,63,-99.99,,,-99.99,meteohub,2013-09-09 17:11:00,
2013-09-09 13:16:00,86.0,71.4,30.01,SE,135,6.0,-999.0,62,-99.99,,,-99.99,meteohub,2013-09-09 17:16:00,
2013-09-09 13:21:00,86.0,72.3,30.01,NE,45,5.0,-999.0,64,-99.99,,,-99.99,meteohub,2013-09-09 17:21:00,
2013-09-09 13:26:00,86.0,72.0,30.01,NE,45,5.0,-999.0,63,-99.99,,,-99.99,meteohub,2013-09-09 17:26:00,
2013-09-09 13:31:00,86.0,71.1,30.01,SE,135,3.0,-999.0,61,-99.99,,,-99.99,meteohub,2013-09-09 17:31:00,
2013-09-09 13:36:00,87.1,71.4,30.01,NE,45,5.0,-999.0,60,-99.99,,,-99.99,meteohub,2013-09-09 17:36:00,
2013-09-09 13:41:00,87.1,71.4,30.01,NE,45,6.0,-999.0,60,-99.99,,,-99.99,meteohub,2013-09-09 17:41:00,
2013-09-09 13:46:00,87.1,71.4,30.01,SE,135,4.0,-999.0,60,-99.99,,,-99.99,meteohub,2013-09-09 17:46:00,
2013-09-09 13:51:00,87.1,71.1,30.01,SE,135,6.0,-999.0,59,-99.99,,,-99.99,meteohub,2013-09-09 17:51:00,
2013-09-09 13:56:00,87.1,71.4,29.99,SE,135,6.0,-999.0,60,-99.99,,,-99.99,meteohub,2013-09-09 17:56:00,
2013-09-09 14:01:00,87.1,71.1,29.99,SE,135,7.0,-999.0,59,-99.99,,,-99.99,meteohub,2013-09-09 18:01:00,
2013-09-09 14:07:00,88.0,69.8,29.99,NE,45,1.0,-999.0,55,-99.99,,,-99.99,meteohub,2013-09-09 18:07:00,
2013-09-09 14:12:00,87.1,70.5,29.99,SE,135,9.0,-999.0,58,-99.99,,,-99.99,meteohub,2013-09-09 18:12:00,
2013-09-09 14:17:00,87.1,73.4,29.99,NE,45,5.0,-999.0,64,-99.99,,,-99.99,meteohub,2013-09-09 18:17:00,
2013-09-09 14:22:00,84.9,70.9,29.99,NE,45,3.0,-999.0,63,-99.99,,,-99.99,meteohub,2013-09-09 18:22:00,
2013-09-09 14:27:00,84.9,71.8,29.99,NE,45,2.0,-999.0,65,-99.99,,,-99.99,meteohub,2013-09-09 18:27:00,
2013-09-09 14:32:00,86.0,72.9,29.99,NE,45,6.0,-999.0,65,-99.99,,,-99.99,meteohub,2013-09-09 18:32:00,
2013-09-09 14:37:00,86.0,72.9,29.99,NE,45,4.0,-999.0,65,-99.99,,,-99.99,meteohub,2013-09-09 18:37:00,
2013-09-09 14:42:00,86.0,73.2,29.99,South,180,0.0,-999.0,66,-99.99,,,-99.99,meteohub,2013-09-09 18:42:00,
2013-09-09 14:47:00,86.0,73.2,29.99,SW,225,0.0,-999.0,66,-99.99,,,-99.99,meteohub,2013-09-09 18:47:00,
2013-09-09 14:52:00,86.0,72.9,29.98,North,0,0.0,-999.0,65,-99.99,,,-99.99,meteohub,2013-09-09 18:52:00,
2013-09-09 14:57:00,84.9,72.3,29.98,West,270,3.0,-999.0,66,-99.99,,,-99.99,meteohub,2013-09-09 18:57:00,
2013-09-09 15:02:00,84.9,72.7,29.98,WSW,247,6.0,-999.0,67,-99.99,,,-99.99,meteohub,2013-09-09 19:02:00,
2013-09-09 15:07:00,84.0,73.2,29.96,West,270,10.0,-999.0,70,-99.99,,,-99.99,meteohub,2013-09-09 19:07:00,
2013-09-09 15:12:00,82.9,73.4,29.96,SW,225,7.0,-999.0,73,-99.99,,,-99.99,meteohub,2013-09-09 19:12:00,
2013-09-09 15:17:00,82.9,73.0,29.96,WSW,247,9.0,-999.0,72,-99.99,,,-99.99,meteohub,2013-09-09 19:17:00,
2013-09-09 15:22:00,82.9,71.8,29.96,SW,225,9.0,-999.0,69,-99.99,,,-99.99,meteohub,2013-09-09 19:22:00,
2013-09-09 15:27:00,82.9,73.0,29.96,SSW,202,7.0,-999.0,72,-99.99,,,-99.99,meteohub,2013-09-09 19:27:00,
2013-09-09 15:32:00,82.9,72.5,29.96,SW,225,9.0,-999.0,71,-99.99,,,-99.99,meteohub,2013-09-09 19:32:00,
2013-09-09 15:37:00,82.9,72.5,29.96,South,180,7.0,-999.0,71,-99.99,,,-99.99,meteohub,2013-09-09 19:37:00,
2013-09-09 15:42:00,84.0,72.7,29.96,SW,225,6.0,-999.0,69,-99.99,,,-99.99,meteohub,2013-09-09 19:42:00,
2013-09-09 15:47:00,82.9,73.8,29.96,WSW,247,7.0,-999.0,74,-99.99,,,-99.99,meteohub,2013-09-09 19:47:00,
2013-09-09 15:53:00,82.9,74.7,29.96,West,270,9.0,-999.0,76,-99.99,,,-99.99,meteohub,2013-09-09 19:53:00,
2013-09-09 15:58:00,82.9,73.8,29.96,West,270,7.0,-999.0,74,-99.99,,,-99.99,meteohub,2013-09-09 19:58:00,
2013-09-09 16:03:00,82.9,73.0,29.96,WSW,247,7.0,-999.0,72,-99.99,,,-99.99,meteohub,2013-09-09 20:03:00,
2013-09-09 16:08:00,82.9,73.8,29.96,WSW,247,7.0,-999.0,74,-99.99,,,-99.99,meteohub,2013-09-09 20:08:00,
2013-09-09 16:13:00,82.9,72.5,29.96,WSW,247,7.0,-999.0,71,-99.99,,,-99.99,meteohub,2013-09-09 20:13:00,
2013-09-09 16:18:00,84.0,73.2,29.96,West,270,6.0,-999.0,70,-99.99,,,-99.99,meteohub,2013-09-09 20:18:00,
2013-09-09 16:23:00,84.0,73.2,29.96,SSE,157,7.0,-999.0,70,-99.99,,,-99.99,meteohub,2013-09-09 20:23:00,
2013-09-09 16:28:00,82.0,73.4,29.96,SE,135,3.0,-999.0,75,-99.99,,,-99.99,meteohub,2013-09-09 20:28:00,
2013-09-09 16:33:00,80.1,73.4,29.96,SE,135,6.0,-999.0,80,-99.99,,,-99.99,meteohub,2013-09-09 20:33:00,
2013-09-09 16:38:00,80.1,75.2,29.96,SE,135,7.0,-999.0,85,-99.99,,,-99.99,meteohub,2013-09-09 20:38:00,
2013-09-09 16:43:00,79.0,76.8,29.96,SE,135,20.0,-999.0,93,-99.99,,,-99.99,meteohub,2013-09-09 20:43:00,
2013-09-09 16:48:00,78.1,75.2,29.96,SE,135,12.0,-999.0,91,-99.99,,,-99.99,meteohub,2013-09-09 20:48:00,
2013-09-09 16:53:00,77.0,73.8,29.96,NE,45,15.0,-999.0,90,-99.99,,,-99.99,meteohub,2013-09-09 20:53:00,
2013-09-09 16:58:00,75.9,73.8,29.99,SE,135,10.0,-999.0,93,-99.99,,,-99.99,meteohub,2013-09-09 20:58:00,
2013-09-09 17:04:00,75.0,73.2,29.99,SE,135,12.0,-999.0,94,-99.99,,,-99.99,meteohub,2013-09-09 21:04:00,
2013-09-09 17:09:00,75.0,73.4,29.96,SSE,157,6.0,-999.0,95,-99.99,,,-99.99,meteohub,2013-09-09 21:09:00,
2013-09-09 17:14:00,75.0,73.8,29.98,SW,225,9.0,-999.0,96,-99.99,,,-99.99,meteohub,2013-09-09 21:14:00,
2013-09-09 17:19:00,75.9,75.0,29.96,WSW,247,9.0,-999.0,97,-99.99,,,-99.99,meteohub,2013-09-09 21:19:00,
2013-09-09 17:24:00,75.9,74.3,29.96,SW,225,8.0,-999.0,95,-99.99,,,-99.99,meteohub,2013-09-09 21:24:00,
2013-09-09 17:29:00,75.9,74.3,29.96,SSW,202,6.0,-999.0,95,-99.99,,,-99.99,meteohub,2013-09-09 21:29:00,
2013-09-09 17:34:00,75.9,74.3,29.96,SSW,202,5.0,-999.0,95,-99.99,,,-99.99,meteohub,2013-09-09 21:34:00,
2013-09-09 17:39:00,75.9,75.9,29.98,West,270,4.0,-999.0,100,-99.99,,,-99.99,meteohub,2013-09-09 21:39:00,
2013-09-09 17:44:00,75.9,73.8,29.98,SW,225,2.0,-999.0,93,-99.99,,,-99.99,meteohub,2013-09-09 21:44:00,
2013-09-09 17:49:00,75.9,73.8,29.99,SW,225,2.0,-999.0,93,-99.99,,,-99.99,meteohub,2013-09-09 21:49:00,
2013-09-09 17:54:00,77.0,74.8,29.99,NW,315,2.0,-999.0,93,-99.99,,,-99.99,meteohub,2013-09-09 21:54:00,
2013-09-09 17:59:00,77.0,74.5,29.99,North,0,0.0,-999.0,92,-99.99,,,-99.99,meteohub,2013-09-09 21:59:00,
2013-09-09 18:04:00,75.9,73.4,29.98,NE,45,0.0,-999.0,92,-99.99,,,-99.99,meteohub,2013-09-09 22:04:00,
2013-09-09 18:09:00,77.0,74.8,29.96,North,0,0.0,-999.0,93,-99.99,,,-99.99,meteohub,2013-09-09 22:09:00,
2013-09-09 18:15:00,75.9,75.6,29.96,SE,135,7.0,-999.0,99,-99.99,,,-99.99,meteohub,2013-09-09 22:15:00,
2013-09-09 18:20:00,77.0,74.8,29.96,SSW,202,5.0,-999.0,93,-99.99,,,-99.99,meteohub,2013-09-09 22:20:00,
2013-09-09 18:25:00,77.0,74.8,29.98,South,180,3.0,-999.0,93,-99.99,,,-99.99,meteohub,2013-09-09 22:25:00,
2013-09-09 18:30:00,77.0,74.5,29.98,SSE,157,6.0,-999.0,92,-99.99,,,-99.99,meteohub,2013-09-09 22:30:00,
2013-09-09 18:35:00,75.9,75.4,29.99,South,180,2.0,-999.0,98,-99.99,,,-99.99,meteohub,2013-09-09 22:35:00,
2013-09-09 18:40:00,77.0,74.1,29.99,SSE,157,4.0,-999.0,91,-99.99,,,-99.99,meteohub,2013-09-09 22:40:00,
2013-09-09 18:45:00,78.1,74.5,29.99,SE,135,7.0,-999.0,89,-99.99,,,-99.99,meteohub,2013-09-09 22:45:00,
2013-09-09 18:50:00,78.1,74.3,29.98,SE,135,6.0,-999.0,88,-99.99,,,-99.99,meteohub,2013-09-09 22:50:00,
2013-09-09 18:55:00,78.1,73.9,29.98,South,180,2.0,-999.0,87,-99.99,,,-99.99,meteohub,2013-09-09 22:55:00,
2013-09-09 19:00:00,78.1,73.9,29.98,SE,135,3.0,-999.0,87,-99.99,,,-99.99,meteohub,2013-09-09 23:00:00,
2013-09-09 19:05:00,78.1,74.3,29.98,SE,135,5.0,-999.0,88,-99.99,,,-99.99,meteohub,2013-09-09 23:05:00,
2013-09-09 19:10:00,78.1,76.3,29.98,SE,135,5.0,-999.0,94,-99.99,,,-99.99,meteohub,2013-09-09 23:10:00,
2013-09-09 19:16:00,78.1,74.3,29.98,SE,135,7.0,-999.0,88,-99.99,,,-99.99,meteohub,2013-09-09 23:16:00,
2013-09-09 19:21:00,79.0,75.2,29.99,SE,135,7.0,-999.0,88,-99.99,,,-99.99,meteohub,2013-09-09 23:21:00,
2013-09-09 19:26:00,79.0,75.2,29.99,SE,135,7.0,-999.0,88,-99.99,,,-99.99,meteohub,2013-09-09 23:26:00,
2013-09-09 19:31:00,78.1,76.3,30.00,SE,135,6.0,-999.0,94,-99.99,,,-99.99,meteohub,2013-09-09 23:31:00,
2013-09-09 19:36:00,79.0,75.2,30.00,NE,45,3.0,-999.0,88,-99.99,,,-99.99,meteohub,2013-09-09 23:36:00,
2013-09-09 19:41:00,78.1,74.3,30.00,NE,45,2.0,-999.0,88,-99.99,,,-99.99,meteohub,2013-09-09 23:41:00,
2013-09-09 19:46:00,78.1,74.8,30.00,SE,135,4.0,-999.0,90,-99.99,,,-99.99,meteohub,2013-09-09 23:46:00,
2013-09-09 19:51:00,79.0,75.7,30.00,SE,135,6.0,-999.0,90,-99.99,,,-99.99,meteohub,2013-09-09 23:51:00,
2013-09-09 19:56:00,79.0,75.2,30.00,SE,135,7.0,-999.0,88,-99.99,,,-99.99,meteohub,2013-09-09 23:56:00,
2013-09-09 20:01:00,79.0,75.4,30.00,SE,135,3.0,-999.0,89,-99.99,,,-99.99,meteohub,2013-09-10 00:01:00,
2013-09-09 20:06:00,78.1,76.5,30.00,NE,45,5.0,-999.0,95,-99.99,,,-99.99,meteohub,2013-09-10 00:06:00,
2013-09-09 20:11:00,78.1,74.5,30.00,NE,45,6.0,-999.0,89,-99.99,,,-99.99,meteohub,2013-09-10 00:11:00,
2013-09-09 20:17:00,78.1,74.8,30.00,NE,45,7.0,-999.0,90,-99.99,,,-99.99,meteohub,2013-09-10 00:17:00,
2013-09-09 20:22:00,78.1,74.8,30.00,SE,135,8.0,-999.0,90,-99.99,,,-99.99,meteohub,2013-09-10 00:22:00,
2013-09-09 20:27:00,79.0,75.2,30.00,SE,135,7.0,-999.0,88,-99.99,,,-99.99,meteohub,2013-09-10 00:27:00,
2013-09-09 20:32:00,78.1,73.9,30.01,NE,45,7.0,-999.0,87,-99.99,,,-99.99,meteohub,2013-09-10 00:32:00,
2013-09-09 20:37:00,78.1,73.9,30.01,SE,135,5.0,-999.0,87,-99.99,,,-99.99,meteohub,2013-09-10 00:37:00,
2013-09-09 20:42:00,78.1,75.9,30.00,SE,135,9.0,-999.0,93,-99.99,,,-99.99,meteohub,2013-09-10 00:42:00,
2013-09-09 20:47:00,79.0,74.1,30.00,SE,135,6.0,-999.0,85,-99.99,,,-99.99,meteohub,2013-09-10 00:47:00,
2013-09-09 20:52:00,79.0,74.5,30.00,SE,135,9.0,-999.0,86,-99.99,,,-99.99,meteohub,2013-09-10 00:52:00,
2013-09-09 20:57:00,78.1,73.2,30.00,NE,45,5.0,-999.0,85,-99.99,,,-99.99,meteohub,2013-09-10 00:57:00,
2013-09-09 21:02:00,78.1,73.9,30.00,SE,135,4.0,-999.0,87,-99.99,,,-99.99,meteohub,2013-09-10 01:02:00,
2013-09-09 21:07:00,78.1,73.9,30.00,NE,45,4.0,-999.0,87,-99.99,,,-99.99,meteohub,2013-09-10 01:07:00,
2013-09-09 21:12:00,78.1,74.3,30.00,NE,45,2.0,-999.0,88,-99.99,,,-99.99,meteohub,2013-09-10 01:12:00,
2013-09-09 21:17:00,77.0,74.8,30.01,NE,45,6.0,-999.0,93,-99.99,,,-99.99,meteohub,2013-09-10 01:17:00,
2013-09-09 21:22:00,78.1,73.9,30.01,NE,45,5.0,-999.0,87,-99.99,,,-99.99,meteohub,2013-09-10 01:22:00,
2013-09-09 21:27:00,78.1,73.9,30.01,NE,45,2.0,-999.0,87,-99.99,,,-99.99,meteohub,2013-09-10 01:27:00,
2013-09-09 21:32:00,78.1,73.9,30.01,NE,45,7.0,-999.0,87,-99.99,,,-99.99,meteohub,2013-09-10 01:32:00,
2013-09-09 21:37:00,78.1,73.9,30.01,SE,135,6.0,-999.0,87,-99.99,,,-99.99,meteohub,2013-09-10 01:37:00,
2013-09-09 21:42:00,78.1,73.9,30.01,NE,45,2.0,-999.0,87,-99.99,,,-99.99,meteohub,2013-09-10 01:42:00,
2013-09-09 21:47:00,78.1,73.9,30.01,NE,45,6.0,-999.0,87,-99.99,,,-99.99,meteohub,2013-09-10 01:47:00,
2013-09-09 21:52:00,77.0,74.5,30.01,NE,45,6.0,-999.0,92,-99.99,,,-99.99,meteohub,2013-09-10 01:52:00,
2013-09-09 21:57:00,78.1,73.9,30.01,NE,45,5.0,-999.0,87,-99.99,,,-99.99,meteohub,2013-09-10 01:57:00,
2013-09-09 22:02:00,77.0,72.9,30.03,NE,45,4.0,-999.0,87,-99.99,,,-99.99,meteohub,2013-09-10 02:02:00,
2013-09-09 22:07:00,77.0,73.2,30.03,NE,45,4.0,-999.0,88,-99.99,,,-99.99,meteohub,2013-09-10 02:07:00,
2013-09-09 22:12:00,78.1,74.3,30.03,NE,45,2.0,-999.0,88,-99.99,,,-99.99,meteohub,2013-09-10 02:12:00,
2013-09-09 22:17:00,78.1,74.3,30.03,NE,45,2.0,-999.0,88,-99.99,,,-99.99,meteohub,2013-09-10 02:17:00,
2013-09-09 22:22:00,78.1,74.3,30.04,NE,45,0.0,-999.0,88,-99.99,,,-99.99,meteohub,2013-09-10 02:22:00,
2013-09-09 22:27:00,77.0,75.2,30.04,NE,45,1.0,-999.0,94,-99.99,,,-99.99,meteohub,2013-09-10 02:27:00,
2013-09-09 22:32:00,78.1,74.5,30.04,NE,45,1.0,-999.0,89,-99.99,,,-99.99,meteohub,2013-09-10 02:32:00,
2013-09-09 22:37:00,78.1,74.8,30.03,NE,45,1.0,-999.0,90,-99.99,,,-99.99,meteohub,2013-09-10 02:37:00,
2013-09-09 22:42:00,78.1,74.8,30.03,NE,45,3.0,-999.0,90,-99.99,,,-99.99,meteohub,2013-09-10 02:42:00,
2013-09-09 22:47:00,77.0,73.8,30.03,NE,45,4.0,-999.0,90,-99.99,,,-99.99,meteohub,2013-09-10 02:47:00,
2013-09-09 22:52:00,77.0,74.1,30.03,NE,45,5.0,-999.0,91,-99.99,,,-99.99,meteohub,2013-09-10 02:52:00,
2013-09-09 22:57:00,77.0,74.5,30.01,NE,45,3.0,-999.0,92,-99.99,,,-99.99,meteohub,2013-09-10 02:57:00,
2013-09-09 23:02:00,77.0,76.1,30.01,NE,45,2.0,-999.0,97,-99.99,,,-99.99,meteohub,2013-09-10 03:02:00,
2013-09-09 23:07:00,77.0,74.1,30.01,NE,45,0.0,-999.0,91,-99.99,,,-99.99,meteohub,2013-09-10 03:07:00,
2013-09-09 23:12:00,77.0,74.5,30.01,NE,45,2.0,-999.0,92,-99.99,,,-99.99,meteohub,2013-09-10 03:12:00,
2013-09-09 23:17:00,77.0,74.5,30.01,NE,45,4.0,-999.0,92,-99.99,,,-99.99,meteohub,2013-09-10 03:17:00,
2013-09-09 23:22:00,77.0,74.1,30.01,NE,45,3.0,-999.0,91,-99.99,,,-99.99,meteohub,2013-09-10 03:22:00,
2013-09-09 23:27:00,77.0,74.1,30.01,NE,45,4.0,-999.0,91,-99.99,,,-99.99,meteohub,2013-09-10 03:27:00,
2013-09-09 23:32:00,77.0,74.1,30.03,NE,45,3.0,-999.0,91,-99.99,,,-99.99,meteohub,2013-09-10 03:32:00,
2013-09-09 23:37:00,77.0,74.1,30.03,NE,45,2.0,-999.0,91,-99.99,,,-99.99,meteohub,2013-09-10 03:37:00,
2013-09-09 23:42:00,77.0,74.1,30.03,NE,45,2.0,-999.0,91,-99.99,,,-99.99,meteohub,2013-09-10 03:42:00,
2013-09-09 23:47:00,77.0,73.8,30.03,NE,45,2.0,-999.0,90,-99.99,,,-99.99,meteohub,2013-09-10 03:47:00,
2013-09-09 23:52:00,77.0,73.8,30.03,NE,45,0.0,-999.0,90,-99.99,,,-99.99,meteohub,2013-09-10 03:52:00,
2013-09-09 23:57:00,77.0,75.7,30.03,NE,45,1.0,-999.0,96,-99.99,,,-99.99,meteohub,2013-09-10 03:57:00,